createdAt,value
2019-05-29T00:00:29.094Z,1.90
2019-05-29T00:02:55.345Z,2.17
2019-05-29T00:05:22.185Z,2.00
2019-05-29T00:07:49.049Z,2.20
2019-05-29T00:10:15.962Z,2.40
2019-05-29T00:12:42.127Z,1.87
2019-05-29T00:15:08.485Z,1.93
2019-05-29T00:17:36.373Z,1.80
2019-05-29T00:20:02.429Z,2.27
2019-05-29T00:22:28.431Z,2.03
2019-05-29T00:24:54.562Z,1.70
2019-05-29T00:27:20.593Z,1.80
2019-05-29T00:29:46.738Z,2.00
2019-05-29T00:32:13.480Z,1.90
2019-05-29T00:34:39.142Z,2.30
2019-05-29T00:37:06.269Z,2.13
2019-05-29T00:39:32.294Z,2.03
2019-05-29T00:41:59.322Z,2.40
2019-05-29T00:44:34.271Z,2.03
2019-05-29T00:46:52.995Z,1.97
2019-05-29T00:49:19.333Z,2.17
2019-05-29T00:51:46.988Z,2.07
2019-05-29T00:54:14.460Z,2.40
2019-05-29T00:56:40.985Z,2.00
2019-05-29T00:59:07.094Z,2.30
2019-05-29T01:01:33.360Z,2.40
2019-05-29T01:03:59.801Z,2.17
2019-05-29T01:06:25.983Z,2.40
2019-05-29T01:08:52.152Z,2.37
2019-05-29T01:11:19.120Z,1.93
2019-05-29T01:13:45.995Z,2.00
2019-05-29T01:16:13.352Z,2.03
2019-05-29T01:18:39.232Z,2.40
2019-05-29T01:21:05.564Z,2.53
2019-05-29T01:23:31.674Z,2.67
2019-05-29T01:25:58.664Z,2.77
2019-05-29T01:28:26.422Z,2.43
2019-05-29T01:30:52.672Z,2.10
2019-05-29T01:33:20.517Z,2.40
2019-05-29T01:35:45.886Z,2.63
2019-05-29T01:38:12.090Z,2.50
2019-05-29T01:40:38.351Z,2.37
2019-05-29T01:43:05.470Z,2.40
2019-05-29T01:45:32.431Z,2.87
2019-05-29T01:47:58.643Z,2.77
2019-05-29T01:50:25.926Z,2.73
2019-05-29T01:52:52.809Z,2.47
2019-05-29T01:55:19.799Z,2.50
2019-05-29T01:57:45.344Z,2.67
2019-05-29T02:00:11.545Z,2.60
2019-05-29T02:02:37.919Z,2.77
2019-05-29T02:05:04.298Z,2.47
2019-05-29T02:07:30.598Z,2.70
2019-05-29T02:09:57.182Z,2.50
2019-05-29T02:12:24.443Z,2.63
2019-05-29T02:14:49.990Z,3.17
2019-05-29T02:17:17.650Z,2.60
2019-05-29T02:19:43.495Z,2.60
2019-05-29T02:22:10.676Z,3.00
2019-05-29T02:24:37.688Z,3.10
2019-05-29T02:27:03.790Z,2.90
2019-05-29T02:29:30.691Z,3.27
2019-05-29T02:31:57.770Z,3.10
2019-05-29T02:34:25.522Z,2.40
2019-05-29T02:36:50.877Z,2.87
2019-05-29T02:39:21.010Z,2.83
2019-05-29T02:41:45.944Z,3.33
2019-05-29T02:44:12.136Z,3.40
2019-05-29T02:46:39.008Z,3.30
2019-05-29T02:49:05.769Z,2.80
2019-05-29T02:51:32.313Z,3.07
2019-05-29T02:53:58.777Z,3.30
2019-05-29T02:56:28.439Z,3.03
2019-05-29T02:58:53.707Z,3.13
2019-05-29T03:01:21.396Z,3.33
2019-05-29T03:03:46.207Z,3.00
2019-05-29T03:06:14.488Z,2.50
2019-05-29T03:08:41.710Z,2.90
2019-05-29T03:11:07.967Z,2.70
2019-05-29T03:13:34.063Z,3.30
2019-05-29T03:16:10.588Z,3.37
2019-05-29T03:18:27.919Z,3.37
2019-05-29T03:20:52.298Z,3.10
2019-05-29T03:23:19.014Z,2.47
2019-05-29T03:25:45.969Z,2.97
2019-05-29T03:28:12.002Z,3.30
2019-05-29T03:30:45.743Z,2.97
2019-05-29T03:33:04.836Z,2.70
2019-05-29T03:35:38.050Z,3.67
2019-05-29T03:37:58.961Z,3.17
2019-05-29T03:40:22.930Z,3.27
2019-05-29T03:42:50.171Z,3.23
2019-05-29T03:45:16.196Z,2.80
2019-05-29T03:47:42.350Z,3.43
2019-05-29T03:50:09.129Z,3.10
2019-05-29T03:52:35.135Z,2.90
2019-05-29T03:55:01.942Z,3.00
2019-05-29T03:57:29.691Z,3.20
2019-05-29T03:59:54.245Z,2.80
2019-05-29T04:02:20.233Z,2.50
2019-05-29T04:04:46.353Z,3.00
2019-05-29T04:07:12.438Z,3.60
2019-05-29T04:09:38.452Z,3.20
2019-05-29T04:12:05.171Z,3.23
2019-05-29T04:14:33.494Z,2.37
2019-05-29T04:17:00.383Z,2.80
2019-05-29T04:19:25.117Z,2.70
2019-05-29T04:21:51.217Z,2.33
2019-05-29T04:24:17.233Z,2.70
2019-05-29T04:26:43.319Z,2.53
2019-05-29T04:29:09.360Z,2.90
2019-05-29T04:31:36.570Z,2.80
2019-05-29T04:34:02.205Z,2.87
2019-05-29T04:36:28.664Z,2.47
2019-05-29T04:38:55.037Z,2.47
2019-05-29T04:41:21.873Z,2.80
2019-05-29T04:43:48.830Z,3.13
2019-05-29T04:46:14.918Z,2.43
2019-05-29T04:48:42.674Z,2.47
2019-05-29T04:51:08.812Z,2.80
2019-05-29T04:53:37.516Z,2.60
2019-05-29T04:56:02.128Z,3.03
2019-05-29T04:58:28.806Z,2.50
2019-05-29T05:00:58.965Z,2.80
2019-05-29T05:03:21.927Z,2.33
2019-05-29T05:05:48.009Z,3.00
2019-05-29T05:08:14.024Z,2.50
2019-05-29T05:10:40.888Z,2.90
2019-05-29T05:13:06.313Z,2.63
2019-05-29T05:15:33.671Z,2.70
2019-05-29T05:18:00.559Z,2.57
2019-05-29T05:20:26.781Z,2.47
2019-05-29T05:22:53.792Z,2.43
2019-05-29T05:25:19.964Z,2.77
2019-05-29T05:27:47.149Z,2.57
2019-05-29T05:30:13.327Z,2.53
2019-05-29T05:32:40.935Z,2.00
2019-05-29T05:35:06.016Z,2.40
2019-05-29T05:37:33.000Z,2.30
2019-05-29T05:39:59.451Z,2.20
2019-05-29T05:42:26.438Z,2.10
2019-05-29T05:44:52.494Z,2.17
2019-05-29T05:47:18.623Z,2.23
2019-05-29T05:49:44.652Z,2.07
2019-05-29T05:52:10.705Z,2.20
2019-05-29T05:54:37.605Z,2.77
2019-05-29T05:57:03.844Z,2.10
2019-05-29T05:59:30.125Z,2.10
2019-05-29T06:01:56.928Z,2.43
2019-05-29T06:04:23.228Z,2.00
2019-05-29T06:06:49.456Z,2.00
2019-05-29T06:09:15.709Z,2.10
2019-05-29T06:11:42.569Z,2.10
2019-05-29T06:14:08.026Z,2.07
2019-05-29T06:16:34.460Z,2.20
2019-05-29T06:19:00.585Z,1.90
2019-05-29T06:21:26.957Z,1.83
2019-05-29T06:23:53.229Z,2.40
2019-05-29T06:26:19.471Z,2.17
2019-05-29T06:28:46.783Z,1.60
2019-05-29T06:31:13.787Z,1.70
2019-05-29T06:33:41.427Z,1.70
2019-05-29T06:36:06.444Z,1.30
2019-05-29T06:38:35.624Z,1.47
2019-05-29T06:41:02.986Z,1.13
2019-05-29T06:43:29.206Z,1.33
2019-05-29T06:45:55.349Z,1.30
2019-05-29T06:48:40.562Z,1.50
2019-05-29T06:50:49.011Z,1.20
2019-05-29T06:53:15.212Z,1.33
2019-05-29T06:55:42.103Z,1.40
2019-05-29T06:58:07.659Z,1.30
2019-05-29T07:00:35.501Z,1.30
2019-05-29T07:03:00.557Z,1.00
2019-05-29T07:05:26.575Z,0.70
2019-05-29T07:07:52.819Z,0.80
2019-05-29T07:10:18.996Z,0.90
2019-05-29T07:12:46.398Z,0.70
2019-05-29T07:15:12.160Z,1.00
2019-05-29T07:17:38.622Z,1.13
2019-05-29T07:20:05.310Z,1.10
2019-05-29T07:22:31.554Z,1.10
2019-05-29T07:24:57.719Z,1.10
2019-05-29T07:27:23.824Z,0.80
2019-05-29T07:29:49.905Z,0.70
2019-05-29T07:32:15.973Z,0.70
2019-05-29T07:34:57.903Z,0.80
2019-05-29T07:37:08.954Z,0.67
2019-05-29T07:39:35.035Z,0.67
2019-05-29T07:42:01.817Z,0.80
2019-05-29T07:44:27.864Z,0.60
2019-05-29T07:46:53.877Z,0.77
2019-05-29T07:49:19.885Z,0.80
2019-05-29T07:51:46.957Z,0.77
2019-05-29T07:54:12.684Z,0.70
2019-05-29T07:56:40.358Z,0.90
2019-05-29T07:59:06.380Z,0.77
2019-05-29T08:01:32.436Z,1.00
2019-05-29T08:03:58.460Z,1.10
2019-05-29T08:06:24.563Z,0.90
2019-05-29T08:08:51.513Z,0.90
2019-05-29T08:11:18.328Z,1.07
2019-05-29T08:13:45.563Z,0.60
2019-05-29T08:16:10.551Z,0.90
2019-05-29T08:18:36.597Z,0.80
2019-05-29T08:21:02.975Z,0.60
2019-05-29T08:23:29.807Z,0.70
2019-05-29T08:25:55.868Z,0.80
2019-05-29T08:28:21.840Z,0.70
2019-05-29T08:30:52.598Z,0.70
2019-05-29T08:33:13.848Z,0.80
2019-05-29T08:35:41.392Z,0.70
2019-05-29T08:38:05.928Z,0.80
2019-05-29T08:40:32.738Z,0.80
2019-05-29T08:42:58.687Z,0.70
2019-05-29T08:45:25.395Z,0.70
2019-05-29T08:47:51.939Z,0.80
2019-05-29T08:50:19.292Z,0.70
2019-05-29T08:52:44.207Z,0.75
2019-05-29T08:55:13.690Z,0.80
2019-05-29T08:57:37.335Z,0.60
2019-05-29T09:00:03.513Z,0.70
2019-05-29T09:02:29.636Z,0.70
2019-05-29T09:04:55.683Z,0.50
2019-05-29T09:07:21.740Z,0.73
2019-05-29T09:09:49.020Z,0.65
2019-05-29T09:12:13.870Z,0.50
2019-05-29T09:14:40.055Z,0.50
2019-05-29T09:17:06.087Z,0.40
2019-05-29T09:19:32.102Z,0.50
2019-05-29T09:21:58.168Z,0.53
2019-05-29T09:24:24.218Z,0.50
2019-05-29T09:26:50.267Z,0.50
2019-05-29T09:29:19.946Z,0.40
2019-05-29T09:31:42.392Z,0.50
2019-05-29T09:34:08.396Z,0.70
2019-05-29T09:36:34.455Z,0.60
2019-05-29T09:39:01.237Z,0.50
2019-05-29T09:41:28.022Z,0.60
2019-05-29T09:43:59.168Z,0.60
2019-05-29T09:46:21.858Z,0.50
2019-05-29T09:48:50.022Z,0.60
2019-05-29T09:51:21.277Z,0.77
2019-05-29T09:53:39.221Z,0.50
2019-05-29T09:56:05.265Z,0.50
2019-05-29T09:58:31.334Z,0.50
2019-05-29T10:01:15.517Z,0.50
2019-05-29T10:03:23.604Z,0.40
2019-05-29T10:05:50.325Z,0.50
2019-05-29T10:08:17.158Z,0.80
2019-05-29T10:10:42.538Z,0.53
2019-05-29T10:13:08.576Z,0.60
2019-05-29T10:15:35.355Z,0.47
2019-05-29T10:18:02.752Z,0.50
2019-05-29T10:20:29.075Z,0.40
2019-05-29T10:22:55.685Z,0.63
2019-05-29T10:25:21.958Z,0.70
2019-05-29T10:27:48.722Z,0.60
2019-05-29T10:30:14.729Z,0.50
2019-05-29T10:32:42.412Z,0.40
2019-05-29T10:35:07.597Z,0.67
2019-05-29T10:37:33.671Z,0.70
2019-05-29T10:39:59.676Z,0.50
2019-05-29T10:42:25.689Z,0.57
2019-05-29T10:44:51.745Z,0.60
2019-05-29T10:47:17.837Z,0.60
2019-05-29T10:49:45.558Z,0.63
2019-05-29T10:52:16.825Z,0.60
2019-05-29T10:54:39.368Z,0.50
2019-05-29T10:57:03.729Z,0.60
2019-05-29T10:59:30.502Z,0.70
2019-05-29T11:01:56.504Z,0.60
2019-05-29T11:04:22.508Z,0.60
2019-05-29T11:06:50.008Z,0.70
2019-05-29T11:09:14.613Z,0.50
2019-05-29T11:11:40.626Z,0.63
2019-05-29T11:14:07.424Z,0.60
2019-05-29T11:16:33.428Z,0.70
2019-05-29T11:18:59.447Z,0.60
2019-05-29T11:21:25.429Z,0.60
2019-05-29T11:23:53.636Z,0.60
2019-05-29T11:26:18.513Z,0.50
2019-05-29T11:28:44.599Z,0.50
2019-05-29T11:31:11.501Z,0.33
2019-05-29T11:33:37.550Z,0.50
2019-05-29T11:36:10.730Z,0.57
2019-05-29T11:38:29.663Z,0.60
2019-05-29T11:41:21.083Z,0.43
2019-05-29T11:43:22.883Z,0.40
2019-05-29T11:45:48.908Z,0.53
2019-05-29T11:48:14.943Z,0.60
2019-05-29T11:50:41.057Z,0.53
2019-05-29T11:53:07.059Z,0.50
2019-05-29T11:55:33.082Z,0.40
2019-05-29T11:58:00.040Z,0.50
2019-05-29T12:00:25.206Z,0.50
2019-05-29T12:02:51.614Z,0.50
2019-05-29T12:05:17.314Z,0.47
2019-05-29T12:07:43.301Z,0.40
2019-05-29T12:10:09.510Z,0.53
2019-05-29T12:12:35.429Z,0.50
2019-05-29T12:15:11.039Z,0.47
2019-05-29T12:17:28.350Z,0.60
2019-05-29T12:19:54.450Z,0.40
2019-05-29T12:22:20.500Z,0.60
2019-05-29T12:24:46.506Z,0.70
2019-05-29T12:27:12.492Z,0.60
2019-05-29T12:29:39.270Z,0.70
2019-05-29T12:32:09.282Z,0.63
2019-05-29T12:34:31.445Z,0.50
2019-05-29T12:36:57.725Z,0.60
2019-05-29T12:39:23.760Z,0.60
2019-05-29T12:41:49.817Z,0.67
2019-05-29T12:44:15.810Z,0.50
2019-05-29T12:46:41.854Z,0.70
2019-05-29T12:49:07.900Z,0.63
2019-05-29T12:51:34.758Z,0.60
2019-05-29T12:54:02.147Z,0.70
2019-05-29T12:56:27.785Z,0.53
2019-05-29T12:58:54.182Z,0.60
2019-05-29T13:01:19.941Z,0.70
2019-05-29T13:03:46.130Z,0.60
2019-05-29T13:06:12.907Z,0.60
2019-05-29T13:08:38.910Z,0.70
2019-05-29T13:11:05.664Z,0.80
2019-05-29T13:13:31.681Z,0.60
2019-05-29T13:15:58.750Z,0.50
2019-05-29T13:18:23.744Z,0.50
2019-05-29T13:20:50.498Z,0.70
2019-05-29T13:23:17.605Z,0.60
2019-05-29T13:25:43.575Z,0.50
2019-05-29T13:28:09.597Z,0.60
2019-05-29T13:30:35.644Z,0.63
2019-05-29T13:33:03.580Z,0.60
2019-05-29T13:35:27.746Z,0.63
2019-05-29T13:37:54.552Z,0.60
2019-05-29T13:40:21.528Z,0.70
2019-05-29T13:42:47.718Z,0.70
2019-05-29T13:45:18.396Z,0.60
2019-05-29T13:47:39.979Z,0.60
2019-05-29T13:50:10.306Z,0.60
2019-05-29T13:52:33.026Z,0.60
2019-05-29T13:54:59.302Z,0.60
2019-05-29T13:57:25.260Z,0.60
2019-05-29T13:59:51.315Z,0.50
2019-05-29T14:02:18.141Z,0.60
2019-05-29T14:04:44.169Z,0.80
2019-05-29T14:07:10.265Z,0.70
2019-05-29T14:09:37.020Z,0.50
2019-05-29T14:12:05.088Z,0.70
2019-05-29T14:14:29.930Z,0.60
2019-05-29T14:16:56.019Z,0.70
2019-05-29T14:19:22.404Z,0.60
2019-05-29T14:21:48.507Z,0.60
2019-05-29T14:24:28.561Z,0.60
2019-05-29T14:26:41.597Z,0.60
2019-05-29T14:29:07.742Z,0.80
2019-05-29T14:31:33.858Z,0.80
2019-05-29T14:34:00.918Z,0.77
2019-05-29T14:36:26.065Z,0.80
2019-05-29T14:38:52.918Z,0.67
2019-05-29T14:41:18.931Z,0.60
2019-05-29T14:43:44.936Z,0.77
2019-05-29T14:46:12.060Z,0.80
2019-05-29T14:48:37.837Z,0.70
2019-05-29T14:51:04.935Z,0.60
2019-05-29T14:53:29.961Z,0.50
2019-05-29T14:55:55.943Z,0.70
2019-05-29T14:58:22.018Z,0.80
2019-05-29T15:00:48.001Z,1.03
2019-05-29T15:03:14.022Z,0.90
2019-05-29T15:05:40.044Z,0.83
2019-05-29T15:08:06.061Z,0.70
2019-05-29T15:10:32.127Z,0.90
2019-05-29T15:12:58.502Z,0.60
2019-05-29T15:15:24.230Z,0.73
2019-05-29T15:17:50.269Z,0.60
2019-05-29T15:20:16.834Z,0.67
2019-05-29T15:22:42.356Z,0.80
2019-05-29T15:25:18.491Z,1.00
2019-05-29T15:27:36.199Z,0.80
2019-05-29T15:30:02.194Z,0.83
2019-05-29T15:32:28.242Z,1.00
2019-05-29T15:34:55.092Z,0.70
2019-05-29T15:37:21.152Z,0.73
2019-05-29T15:39:47.891Z,0.70
2019-05-29T15:42:15.039Z,0.60
2019-05-29T15:44:40.599Z,0.70
2019-05-29T15:47:06.916Z,0.60
2019-05-29T15:49:32.806Z,0.70
2019-05-29T15:51:58.851Z,0.60
2019-05-29T15:54:24.896Z,0.63
2019-05-29T15:56:50.952Z,0.70
2019-05-29T15:59:18.907Z,0.80
2019-05-29T16:01:43.016Z,0.77
2019-05-29T16:04:09.646Z,0.93
2019-05-29T16:06:35.115Z,0.90
2019-05-29T16:09:01.319Z,0.80
2019-05-29T16:11:28.775Z,0.80
2019-05-29T16:13:54.846Z,0.80
2019-05-29T16:16:20.921Z,0.73
2019-05-29T16:18:47.118Z,0.70
2019-05-29T16:21:14.584Z,0.70
2019-05-29T16:23:39.422Z,0.80
2019-05-29T16:26:05.670Z,0.80
2019-05-29T16:28:31.946Z,0.60
2019-05-29T16:30:58.044Z,1.00
2019-05-29T16:33:24.181Z,0.90
2019-05-29T16:35:50.277Z,0.80
2019-05-29T16:38:17.613Z,0.87
2019-05-29T16:40:42.746Z,0.80
2019-05-29T16:43:08.961Z,0.80
2019-05-29T16:45:35.657Z,0.63
2019-05-29T16:48:01.828Z,1.00
2019-05-29T16:50:27.951Z,0.90
2019-05-29T16:52:54.133Z,1.17
2019-05-29T16:55:21.067Z,0.97
2019-05-29T16:57:46.404Z,0.70
2019-05-29T17:00:13.598Z,0.73
2019-05-29T17:02:39.168Z,0.87
2019-05-29T17:05:05.275Z,1.07
2019-05-29T17:07:31.469Z,0.80
2019-05-29T17:09:57.741Z,0.70
2019-05-29T17:12:30.129Z,1.10
2019-05-29T17:15:03.641Z,0.80
2019-05-29T17:17:34.745Z,0.90
2019-05-29T17:20:02.960Z,1.10
2019-05-29T17:22:29.179Z,0.90
2019-05-29T17:24:56.997Z,1.00
2019-05-29T17:27:23.379Z,0.90
2019-05-29T17:29:49.588Z,0.90
2019-05-29T17:32:16.876Z,0.90
2019-05-29T17:34:42.964Z,0.93
2019-05-29T17:37:10.021Z,0.90
2019-05-29T17:39:37.084Z,0.90
2019-05-29T17:42:05.167Z,0.90
2019-05-29T17:44:31.370Z,0.70
2019-05-29T17:46:58.304Z,0.80
2019-05-29T17:49:33.049Z,0.80
2019-05-29T17:51:50.819Z,1.20
2019-05-29T17:54:17.906Z,0.90
2019-05-29T17:56:43.771Z,1.03
2019-05-29T17:59:09.947Z,1.43
2019-05-29T18:01:36.683Z,1.10
2019-05-29T18:04:02.956Z,1.10
2019-05-29T18:06:29.292Z,0.90
2019-05-29T18:08:55.676Z,1.00
2019-05-29T18:11:23.274Z,0.90
2019-05-29T18:13:49.596Z,0.70
2019-05-29T18:16:17.277Z,1.10
2019-05-29T18:18:42.037Z,0.90
2019-05-29T18:21:08.079Z,1.00
2019-05-29T18:23:34.109Z,0.87
2019-05-29T18:26:00.195Z,0.80
2019-05-29T18:28:26.241Z,0.87
2019-05-29T18:30:52.257Z,0.60
2019-05-29T18:33:18.621Z,0.80
2019-05-29T18:35:44.480Z,1.00
2019-05-29T18:38:10.507Z,0.80
2019-05-29T18:40:36.559Z,0.90
2019-05-29T18:43:02.590Z,0.70
2019-05-29T18:45:29.458Z,0.80
2019-05-29T18:47:54.698Z,0.90
2019-05-29T18:50:21.595Z,0.80
2019-05-29T18:52:47.525Z,1.10
2019-05-29T18:55:13.559Z,1.50
2019-05-29T18:57:39.621Z,2.40
2019-05-29T19:00:06.361Z,1.93
2019-05-29T19:02:32.378Z,1.60
2019-05-29T19:04:59.118Z,1.70
2019-05-29T19:07:25.883Z,1.20
2019-05-29T19:09:51.915Z,1.33
2019-05-29T19:12:17.951Z,1.30
2019-05-29T19:14:43.964Z,1.27
2019-05-29T19:17:09.986Z,1.40
2019-05-29T19:19:36.063Z,1.60
2019-05-29T19:22:02.108Z,1.90
2019-05-29T19:24:28.591Z,2.20
2019-05-29T19:26:56.411Z,1.83
2019-05-29T19:29:25.225Z,2.03
2019-05-29T19:31:51.264Z,1.90
2019-05-29T19:34:17.245Z,1.93
2019-05-29T19:36:44.169Z,1.37
2019-05-29T19:39:10.167Z,1.50
2019-05-29T19:41:36.204Z,0.93
2019-05-29T19:44:02.210Z,1.17
2019-05-29T19:46:28.601Z,1.10
2019-05-29T19:48:54.410Z,1.10
2019-05-29T19:51:21.235Z,1.07
2019-05-29T19:53:47.257Z,0.97
2019-05-29T19:56:13.382Z,0.97
2019-05-29T19:58:39.504Z,0.83
2019-05-29T20:01:06.409Z,0.70
2019-05-29T20:03:32.610Z,0.87
2019-05-29T20:05:58.626Z,0.87
2019-05-29T20:08:24.698Z,1.30
2019-05-29T20:10:50.751Z,1.07
2019-05-29T20:13:16.830Z,1.20
2019-05-29T20:15:43.558Z,1.13
2019-05-29T20:18:09.655Z,1.20
2019-05-29T20:20:36.497Z,1.03
2019-05-29T20:23:01.778Z,1.03
2019-05-29T20:25:28.799Z,1.10
2019-05-29T20:28:05.904Z,1.03
2019-05-29T20:30:19.921Z,0.90
2019-05-29T20:32:45.966Z,0.90
2019-05-29T20:35:11.960Z,0.90
2019-05-29T20:37:38.802Z,1.10
2019-05-29T20:40:04.830Z,1.40
2019-05-29T20:42:32.052Z,1.00
2019-05-29T20:44:57.027Z,1.00
2019-05-29T20:47:23.088Z,1.20
2019-05-29T20:49:49.108Z,1.17
2019-05-29T20:52:15.165Z,0.97
2019-05-29T20:54:41.957Z,0.90
2019-05-29T20:57:08.890Z,0.90
2019-05-29T20:59:35.952Z,0.87
2019-05-29T21:02:01.848Z,1.10
2019-05-29T21:04:27.873Z,0.90
2019-05-29T21:06:53.893Z,1.07
2019-05-29T21:09:19.907Z,1.03
2019-05-29T21:11:46.639Z,1.10
2019-05-29T21:14:12.680Z,0.90
2019-05-29T21:16:39.763Z,1.30
2019-05-29T21:19:04.777Z,1.30
2019-05-29T21:21:30.756Z,1.10
2019-05-29T21:23:56.795Z,1.60
2019-05-29T21:26:22.853Z,1.43
2019-05-29T21:28:50.869Z,1.33
2019-05-29T21:31:14.929Z,1.50
2019-05-29T21:33:45.064Z,1.30
2019-05-29T21:36:08.521Z,1.67
2019-05-29T21:38:34.555Z,1.50
2019-05-29T21:41:00.881Z,1.50
2019-05-29T21:43:27.165Z,1.90
2019-05-29T21:46:01.019Z,1.37
2019-05-29T21:48:27.072Z,1.93
2019-05-29T21:50:53.104Z,1.90
2019-05-29T21:53:19.142Z,2.00
2019-05-29T21:55:45.704Z,1.90
2019-05-29T21:58:11.241Z,1.60
2019-05-29T22:00:38.373Z,1.50
2019-05-29T22:03:04.405Z,1.70
2019-05-29T22:05:31.193Z,2.00
2019-05-29T22:07:57.216Z,1.80
2019-05-29T22:10:26.156Z,1.70
2019-05-29T22:12:50.372Z,1.90
2019-05-29T22:15:16.235Z,1.90
2019-05-29T22:17:42.240Z,1.60
2019-05-29T22:20:09.059Z,1.80
2019-05-29T22:22:35.042Z,2.20
2019-05-29T22:25:01.547Z,1.80
2019-05-29T22:27:27.129Z,1.87
2019-05-29T22:29:55.222Z,1.63
2019-05-29T22:32:20.696Z,1.80
2019-05-29T22:34:46.726Z,1.60
2019-05-29T22:37:12.745Z,1.53
2019-05-29T22:39:39.510Z,1.70
2019-05-29T22:42:05.538Z,1.80
2019-05-29T22:44:31.572Z,1.80
2019-05-29T22:46:57.832Z,1.70
2019-05-29T22:49:23.644Z,1.90
2019-05-29T22:51:51.627Z,1.47
2019-05-29T22:54:16.728Z,1.50
2019-05-29T22:56:42.732Z,1.80
2019-05-29T22:59:08.760Z,1.47
2019-05-29T23:01:34.777Z,1.73
2019-05-29T23:04:00.805Z,1.27
2019-05-29T23:06:26.806Z,1.70
2019-05-29T23:08:54.038Z,1.60
2019-05-29T23:11:18.911Z,1.30
2019-05-29T23:13:44.913Z,1.43
2019-05-29T23:16:10.985Z,1.43
2019-05-29T23:18:37.706Z,1.30
2019-05-29T23:21:03.737Z,1.40
2019-05-29T23:23:29.756Z,1.40
2019-05-29T23:25:56.501Z,1.40
2019-05-29T23:28:21.834Z,1.10
2019-05-29T23:30:48.594Z,1.40
2019-05-29T23:33:14.583Z,1.10
2019-05-29T23:35:40.587Z,1.30
2019-05-29T23:38:06.584Z,1.40
2019-05-29T23:40:32.599Z,1.30
2019-05-29T23:42:59.429Z,1.30
2019-05-29T23:45:24.704Z,1.10
2019-05-29T23:47:50.697Z,1.20
2019-05-29T23:50:16.711Z,1.20
2019-05-29T23:52:42.715Z,1.30
2019-05-29T23:55:08.734Z,1.20
2019-05-29T23:57:34.745Z,1.20
